Time;durP1;ratioP1;P1;durP2;ratioP2;P2;SDS_P1;SDS_P2;PMS_P1;PMS_P2;Temp;Humidity;BMP_temperature;BMP_pressure;BME280_temperature;BME280_humidity;BME280_pressure;Samples;Min_cycle;Max_cycle;Signal;HPM_P1;HPM_P2
2022/06/06 00:00:00;;;;;;;14.95;12.40;;;16.10;99.90;;;;;;5075350;28;20052;-73
2022/06/06 00:02:28;;;;;;;16.70;12.90;;;16.10;99.90;;;;;;5075401;28;20094;-76
2022/06/06 00:04:54;;;;;;;16.65;12.85;;;16.10;99.90;;;;;;5074983;28;20420;-74
2022/06/06 00:07:20;;;;;;;18.23;13.10;;;16.10;99.90;;;;;;5057589;28;20052;-76
2022/06/06 00:09:46;;;;;;;;;;;16.10;99.90;;;;;;5075373;28;20052;-73
2022/06/06 00:12:12;;;;;;;20.15;14.25;;;16.10;99.90;;;;;;5057429;28;20388;-74
2022/06/06 00:14:37;;;;;;;20.40;13.85;;;16.10;99.90;;;;;;5057167;28;20420;-72
2022/06/06 00:17:04;;;;;;;20.58;15.25;;;16.10;99.90;;;;;;5074910;28;20576;-74
2022/06/06 00:19:30;;;;;;;17.88;14.05;;;16.10;99.90;;;;;;5057079;28;20106;-73
2022/06/06 00:21:56;;;;;;;20.23;14.30;;;16.10;99.90;;;;;;5057184;28;20056;-73
2022/06/06 00:24:22;;;;;;;18.27;14.05;;;16.10;99.90;;;;;;5074472;28;20057;-73
2022/06/06 00:26:48;;;;;;;19.92;15.05;;;16.10;99.90;;;;;;5074507;28;20139;-74
2022/06/06 00:29:16;;;;;;;17.80;13.68;;;16.10;99.90;;;;;;5056862;28;20052;-73
2022/06/06 00:37:13;;;;;;;18.75;15.38;;;16.10;99.90;;;;;;5074361;28;20052;-74
2022/06/06 00:39:41;;;;;;;19.75;15.13;;;16.10;99.90;;;;;;5056723;28;20493;-73
2022/06/06 00:42:13;;;;;;;22.85;15.27;;;16.20;99.90;;;;;;5074464;28;20059;-73
2022/06/06 00:44:39;;;;;;;21.83;15.57;;;16.10;99.90;;;;;;5074258;28;20048;-77
2022/06/06 00:47:05;;;;;;;25.73;16.67;;;16.10;99.90;;;;;;5074240;28;20048;-77
2022/06/06 00:49:37;;;;;;;20.77;16.88;;;16.10;99.90;;;;;;5074096;28;20400;-74
2022/06/06 00:52:18;;;;;;;23.45;17.13;;;16.10;99.90;;;;;;5074292;28;20057;-73
2022/06/06 00:54:46;;;;;;;22.90;16.52;;;16.10;99.90;;;;;;5074190;28;20103;-74
2022/06/06 00:57:16;;;;;;;21.67;14.32;;;16.10;99.90;;;;;;5074122;28;20091;-75
2022/06/06 00:59:44;;;;;;;17.40;12.55;;;16.00;99.90;;;;;;5073894;28;20049;-73
2022/06/06 01:02:11;;;;;;;16.10;12.52;;;16.00;99.90;;;;;;5073876;28;20052;-74
2022/06/06 01:04:39;;;;;;;15.30;10.48;;;15.90;99.90;;;;;;5073904;28;20052;-73
2022/06/06 01:07:09;;;;;;;15.73;9.30;;;15.90;99.90;;;;;;5056404;28;20110;-72
2022/06/06 01:09:37;;;;;;;11.85;8.93;;;15.80;99.90;;;;;;5073882;28;20113;-77
2022/06/06 01:12:11;;;;;;;10.73;6.78;;;16.10;99.90;;;;;;5073801;28;20044;-73
2022/06/06 01:14:40;;;;;;;12.55;6.05;;;15.70;99.90;;;;;;5039424;28;20059;-73
2022/06/06 01:17:42;;;;;;;6.15;4.05;;;15.60;99.90;;;;;;5073446;28;20141;-73
2022/06/06 01:20:40;;;;;;;11.07;4.65;;;15.50;99.90;;;;;;5073544;28;20464;-73
2022/06/06 01:23:12;;;;;;;6.72;4.35;;;15.40;99.90;;;;;;5073495;28;20052;-73
2022/06/06 01:26:03;;;;;;;7.22;5.03;;;15.40;99.90;;;;;;5073499;28;20485;-74
2022/06/06 01:28:58;;;;;;;6.13;3.97;;;15.30;99.90;;;;;;5073564;28;20131;-73
2022/06/06 01:31:33;;;;;;;8.43;5.05;;;15.30;99.90;;;;;;5006828;28;20149;-74
2022/06/06 01:34:02;;;;;;;6.75;4.10;;;15.20;99.90;;;;;;4995363;28;20049;-74
2022/06/06 01:36:30;;;;;;;8.75;4.97;;;15.20;99.90;;;;;;5011574;28;20629;-73
2022/06/06 01:38:59;;;;;;;9.00;4.68;;;15.20;99.90;;;;;;5011553;28;20060;-74
2022/06/06 01:41:30;;;;;;;7.05;4.68;;;15.10;99.90;;;;;;5011480;28;20538;-73
2022/06/06 01:44:07;;;;;;;7.90;4.82;;;15.10;99.90;;;;;;5011059;28;20057;-74
2022/06/06 01:46:36;;;;;;;8.82;5.10;;;15.10;99.90;;;;;;4995042;28;20061;-75
2022/06/06 01:49:05;;;;;;;10.25;5.63;;;15.00;99.90;;;;;;4995203;28;20519;-73
2022/06/06 01:51:32;;;;;;;7.45;4.75;;;15.00;99.90;;;;;;5011441;28;20426;-73
2022/06/06 01:53:59;;;;;;;7.45;4.25;;;15.00;99.90;;;;;;4995295;28;20134;-74
2022/06/06 01:56:26;;;;;;;;;;;15.00;99.90;;;;;;5011807;28;20060;-73
2022/06/06 01:58:53;;;;;;;8.98;4.03;;;15.00;99.90;;;;;;5011376;28;19926;-73
2022/06/06 02:01:19;;;;;;;8.10;3.92;;;15.00;99.90;;;;;;5011112;28;20053;-73
2022/06/06 02:03:45;;;;;;;9.52;3.97;;;15.00;99.90;;;;;;4994812;28;20562;-77
2022/06/06 02:06:13;;;;;;;5.22;3.15;;;15.00;99.90;;;;;;5011309;28;20062;-73
2022/06/06 02:08:39;;;;;;;6.53;4.25;;;14.90;99.90;;;;;;5047850;28;20130;-77
2022/06/06 02:11:05;;;;;;;5.35;3.38;;;14.90;99.90;;;;;;5073042;28;20500;-77
2022/06/06 02:13:31;;;;;;;6.78;3.70;;;14.90;99.90;;;;;;5073040;28;20060;-74
2022/06/06 02:15:57;;;;;;;5.18;3.30;;;14.90;99.90;;;;;;5073105;28;20571;-76
2022/06/06 02:18:23;;;;;;;5.65;3.90;;;14.90;99.90;;;;;;5073135;28;20056;-76
2022/06/06 02:20:49;;;;;;;5.75;3.80;;;14.90;99.90;;;;;;5072997;28;20048;-74
2022/06/06 02:23:15;;;;;;;5.85;3.50;;;14.90;99.90;;;;;;5072770;28;20493;-73
2022/06/06 02:25:41;;;;;;;6.38;3.38;;;14.80;99.90;;;;;;5064107;28;20048;-74
2022/06/06 02:28:07;;;;;;;4.75;3.13;;;14.80;99.90;;;;;;5071867;28;20390;-74
2022/06/06 02:30:36;;;;;;;6.25;4.03;;;14.80;99.90;;;;;;5072795;28;20044;-76
2022/06/06 02:33:02;;;;;;;5.88;3.33;;;14.90;99.90;;;;;;5073004;28;20052;-72
2022/06/06 02:35:33;;;;;;;7.05;4.03;;;14.80;99.90;;;;;;5072828;28;20501;-72
2022/06/06 02:37:58;;;;;;;6.03;3.75;;;14.70;99.90;;;;;;5072714;28;20060;-73
2022/06/06 02:40:26;;;;;;;7.50;4.63;;;14.70;99.90;;;;;;5072796;28;20117;-73
2022/06/06 02:42:52;;;;;;;6.05;4.47;;;14.70;99.90;;;;;;5072766;28;20063;-76
2022/06/06 02:45:18;;;;;;;9.55;4.65;;;14.80;99.90;;;;;;5072574;28;20425;-74
2022/06/06 02:47:46;;;;;;;;;;;14.70;99.90;;;;;;5071749;28;20052;-73
2022/06/06 02:50:14;;;;;;;6.35;4.20;;;14.70;99.90;;;;;;5072812;28;20011;-72
2022/06/06 02:52:40;;;;;;;6.80;4.78;;;14.60;99.90;;;;;;5071744;28;20079;-74
2022/06/06 02:55:08;;;;;;;7.53;4.45;;;14.60;99.90;;;;;;5072478;28;20481;-71
2022/06/06 02:57:42;;;;;;;6.22;4.40;;;14.60;99.90;;;;;;5075761;28;20060;-73
2022/06/06 03:00:11;;;;;;;6.80;4.47;;;14.60;99.90;;;;;;5076376;28;20481;-72
2022/06/06 03:02:37;;;;;;;6.38;4.43;;;14.60;99.90;;;;;;5076377;28;20057;-78
2022/06/06 03:05:04;;;;;;;8.32;5.18;;;14.60;99.90;;;;;;5074513;28;20062;-73
2022/06/06 03:07:54;;;;;;;8.05;4.85;;;14.60;99.90;;;;;;5076263;28;20044;-75
2022/06/06 03:10:31;;;;;;;7.43;5.03;;;14.50;99.90;;;;;;5076027;28;20063;-75
2022/06/06 03:13:17;;;;;;;8.30;4.45;;;14.60;99.90;;;;;;5076219;28;20058;-73
2022/06/06 03:22:49;;;;;;;10.23;5.55;;;14.50;99.90;;;;;;5076041;28;20059;-72
2022/06/06 03:25:26;;;;;;;6.65;4.70;;;14.50;99.90;;;;;;5075664;28;20055;-73
2022/06/06 03:28:36;;;;;;;8.43;5.35;;;14.50;99.90;;;;;;5075943;28;20056;-76
2022/06/06 03:31:17;;;;;;;7.63;4.32;;;14.40;99.90;;;;;;5006288;28;20140;-73
2022/06/06 03:34:07;;;;;;;7.22;5.25;;;14.50;99.90;;;;;;5013707;28;20101;-75
2022/06/06 03:36:45;;;;;;;7.60;4.25;;;14.40;99.90;;;;;;5013795;28;20065;-72
2022/06/06 03:39:34;;;;;;;7.25;4.25;;;14.40;99.90;;;;;;5013722;28;20057;-73
2022/06/06 03:42:11;;;;;;;6.22;3.97;;;14.40;99.90;;;;;;4997523;28;20054;-76
2022/06/06 03:44:37;;;;;;;5.95;4.00;;;14.40;99.90;;;;;;5013578;28;20057;-71
2022/06/06 03:47:20;;;;;;;5.05;2.88;;;14.40;99.90;;;;;;5013705;28;20136;-73
2022/06/06 03:49:56;;;;;;;6.05;3.40;;;14.40;99.90;;;;;;5013543;28;20061;-71
2022/06/06 03:52:28;;;;;;;5.88;3.53;;;14.40;99.90;;;;;;5013667;28;20514;-72
2022/06/06 03:55:00;;;;;;;5.28;3.50;;;14.40;99.90;;;;;;5013475;28;20058;-76
2022/06/06 03:57:27;;;;;;;7.47;4.20;;;14.30;99.90;;;;;;5013423;28;20061;-74
2022/06/06 04:00:02;;;;;;;6.35;3.88;;;14.30;99.90;;;;;;4996970;28;20426;-73
2022/06/06 04:02:32;;;;;;;5.85;4.40;;;14.30;99.90;;;;;;5013148;28;20057;-73
2022/06/06 04:05:06;;;;;;;5.63;4.00;;;14.40;99.90;;;;;;5012630;28;20054;-75
2022/06/06 04:07:33;;;;;;;5.20;4.18;;;14.40;99.90;;;;;;5069294;28;20064;-73
2022/06/06 04:09:59;;;;;;;9.30;5.75;;;14.40;99.90;;;;;;5057550;28;20048;-73
2022/06/06 04:12:53;;;;;;;12.07;7.68;;;14.30;99.90;;;;;;5040759;28;20110;-72
2022/06/06 04:15:58;;;;;;;12.90;7.43;;;14.40;99.90;;;;;;5074795;28;20051;-75
2022/06/06 04:18:35;;;;;;;17.92;10.07;;;14.40;99.90;;;;;;5074961;28;20086;-72
2022/06/06 04:21:14;;;;;;;17.77;12.15;;;14.30;99.90;;;;;;5074869;28;20048;-73
2022/06/06 04:24:14;;;;;;;22.58;12.70;;;14.30;99.90;;;;;;5057159;28;20057;-74
2022/06/06 04:27:01;;;;;;;19.95;10.80;;;14.30;99.90;;;;;;5072773;28;20488;-72
2022/06/06 04:29:43;;;;;;;18.98;10.77;;;14.20;99.90;;;;;;5074697;28;20406;-72
2022/06/06 04:32:51;;;;;;;21.33;11.18;;;14.20;99.90;;;;;;5074505;28;20092;-75
2022/06/06 04:35:28;;;;;;;21.75;11.85;;;14.20;99.90;;;;;;5032285;28;20095;-74
2022/06/06 04:38:25;;;;;;;16.92;9.07;;;14.20;99.90;;;;;;5032429;28;20553;-72
2022/06/06 04:41:24;;;;;;;15.55;8.38;;;14.20;99.90;;;;;;5016069;28;20498;-72
2022/06/06 04:44:12;;;;;;;14.57;8.05;;;14.20;99.90;;;;;;5032296;28;20061;-74
2022/06/06 04:46:53;;;;;;;10.95;5.93;;;14.10;99.90;;;;;;5032114;28;20132;-72
2022/06/06 04:49:20;;;;;;;10.50;5.72;;;14.10;99.90;;;;;;5015615;28;20552;-73
2022/06/06 04:51:47;;;;;;;8.80;5.20;;;14.10;99.90;;;;;;5032099;28;20188;-74
2022/06/06 04:54:17;;;;;;;8.32;5.20;;;14.10;99.90;;;;;;5032159;28;20061;-73
2022/06/06 04:56:44;;;;;;;13.02;5.13;;;14.00;99.90;;;;;;5032090;28;20058;-73
2022/06/06 04:59:14;;;;;;;8.63;4.68;;;14.70;99.90;;;;;;5032010;28;20045;-72
2022/06/06 05:01:41;;;;;;;9.23;5.43;;;14.00;99.90;;;;;;5031808;28;20057;-73
2022/06/06 05:04:07;;;;;;;9.88;5.28;;;14.00;99.90;;;;;;5031802;28;20084;-75
2022/06/06 05:07:11;;;;;;;8.38;5.70;;;14.00;99.90;;;;;;5031857;28;20164;-73
2022/06/06 05:09:54;;;;;;;9.63;5.07;;;13.90;99.90;;;;;;5028966;28;20053;-73
2022/06/06 05:12:47;;;;;;;10.27;6.32;;;13.90;99.90;;;;;;5063896;28;20109;-77
2022/06/06 05:15:38;;;;;;;9.98;6.07;;;13.90;99.90;;;;;;5073842;28;20052;-78
2022/06/06 05:18:16;;;;;;;9.52;5.50;;;13.90;99.90;;;;;;5073289;28;20053;-73
2022/06/06 05:21:18;;;;;;;10.82;6.07;;;13.90;99.90;;;;;;5071931;28;20064;-73
2022/06/06 05:24:05;;;;;;;11.63;6.15;;;13.90;99.90;;;;;;5073662;28;20056;-77
2022/06/06 05:26:51;;;;;;;9.93;6.22;;;13.90;99.90;;;;;;5073375;28;20524;-73
2022/06/06 05:29:20;;;;;;;9.67;5.23;;;13.90;99.90;;;;;;5055865;28;20067;-73
2022/06/06 05:32:06;;;;;;;17.58;8.95;;;13.80;99.90;;;;;;5073606;28;20048;-73
2022/06/06 05:34:44;;;;;;;14.53;7.33;;;13.80;99.90;;;;;;5073403;28;20112;-76
2022/06/06 05:37:23;;;;;;;12.55;7.43;;;13.80;99.90;;;;;;5073358;28;20055;-75
2022/06/06 05:40:13;;;;;;;18.33;7.90;;;13.80;99.90;;;;;;5038564;28;20390;-73
2022/06/06 05:43:01;;;;;;;19.50;8.07;;;13.80;99.90;;;;;;5055799;28;20146;-76
2022/06/06 05:45:54;;;;;;;15.82;8.07;;;13.70;99.90;;;;;;5055310;28;20492;-74
2022/06/06 05:48:40;;;;;;;18.77;7.55;;;13.70;99.90;;;;;;5073481;28;20063;-74
2022/06/06 05:51:08;;;;;;;12.50;7.63;;;13.70;99.90;;;;;;5073242;28;20463;-72
2022/06/06 05:53:55;;;;;;;13.80;7.15;;;13.70;99.90;;;;;;5073178;28;20072;-72
2022/06/06 05:56:39;;;;;;;14.25;6.63;;;13.70;99.90;;;;;;5073051;28;20088;-71
2022/06/06 05:59:30;;;;;;;10.80;6.10;;;13.70;99.90;;;;;;5073234;28;20060;-74
2022/06/06 06:02:09;;;;;;;14.30;6.90;;;13.70;99.90;;;;;;5073175;28;20182;-72
2022/06/06 06:04:57;;;;;;;15.88;6.75;;;13.80;99.90;;;;;;5055276;28;20404;-74
2022/06/06 06:07:31;;;;;;;16.15;6.50;;;13.80;99.90;;;;;;5073242;28;20052;-74
2022/06/06 06:10:11;;;;;;;19.52;8.98;;;14.10;99.90;;;;;;5073124;28;20052;-74
2022/06/06 06:13:14;;;;;;;16.20;9.43;;;13.80;99.90;;;;;;5073020;28;20091;-72
2022/06/06 06:15:42;;;;;;;15.32;8.05;;;13.80;99.90;;;;;;5073078;28;20052;-75
2022/06/06 06:18:19;;;;;;;18.80;8.85;;;13.80;99.90;;;;;;5073204;28;20060;-73
2022/06/06 06:20:52;;;;;;;19.35;8.43;;;13.70;99.90;;;;;;5072874;28;20095;-76
2022/06/06 06:23:24;;;;;;;17.85;8.32;;;13.80;99.90;;;;;;5055225;28;20052;-73
2022/06/06 06:25:51;;;;;;;15.00;8.88;;;13.70;99.90;;;;;;5074452;28;20432;-74
2022/06/06 06:28:17;;;;;;;19.08;8.98;;;13.70;99.90;;;;;;5072860;28;20052;-73
2022/06/06 06:30:57;;;;;;;17.65;9.00;;;13.70;99.90;;;;;;5075039;28;20541;-74
2022/06/06 06:34:15;;;;;;;17.50;9.25;;;13.70;99.90;;;;;;5076896;28;20067;-73
2022/06/06 06:36:45;;;;;;;16.75;8.60;;;13.70;99.90;;;;;;5014754;28;20081;-74
2022/06/06 06:39:32;;;;;;;17.42;7.97;;;14.00;99.90;;;;;;5014995;28;20526;-73
2022/06/06 06:42:10;;;;;;;19.75;8.40;;;13.80;99.90;;;;;;5014884;28;20235;-72
2022/06/06 06:44:40;;;;;;;14.65;8.20;;;13.80;99.90;;;;;;5014748;28;20527;-72
2022/06/06 06:47:18;;;;;;;15.30;6.00;;;14.00;99.90;;;;;;5014555;28;20056;-75
2022/06/06 06:49:50;;;;;;;12.85;7.95;;;13.80;99.90;;;;;;5014630;28;20050;-73
2022/06/06 06:52:30;;;;;;;14.93;7.35;;;13.80;99.90;;;;;;5013591;28;20112;-73
2022/06/06 06:55:05;;;;;;;16.13;7.85;;;13.80;99.90;;;;;;5014408;28;20221;-73
2022/06/06 06:58:30;;;;;;;17.48;7.68;;;13.80;99.90;;;;;;5014302;28;20057;-73
2022/06/06 07:01:02;;;;;;;17.05;9.35;;;13.80;99.90;;;;;;4994655;28;20102;-75
2022/06/06 07:10:02;;;;;;;17.52;8.77;;;13.80;99.90;;;;;;4994876;28;20133;-74
2022/06/06 07:12:55;;;;;;;15.95;9.30;;;13.80;99.90;;;;;;4994488;28;20198;-73
2022/06/06 07:15:52;;;;;;;18.92;8.82;;;13.80;99.90;;;;;;4994569;28;20101;-75
2022/06/06 07:18:21;;;;;;;19.30;7.93;;;13.80;99.90;;;;;;4994480;28;20561;-77
2022/06/06 07:20:51;;;;;;;16.80;7.68;;;13.80;99.90;;;;;;4994366;28;20064;-73
2022/06/06 07:23:19;;;;;;;18.55;9.98;;;13.90;99.90;;;;;;4962103;28;20121;-74
2022/06/06 07:25:49;;;;;;;17.50;8.40;;;14.00;99.90;;;;;;4994031;28;20455;-73
2022/06/06 07:28:24;;;;;;;14.40;6.80;;;14.10;99.90;;;;;;4994247;28;20109;-72
2022/06/06 07:31:21;;;;;;;14.90;6.68;;;14.20;99.90;;;;;;5013990;28;20057;-76
2022/06/06 07:34:21;;;;;;;11.93;5.70;;;14.30;99.90;;;;;;5075725;28;20121;-74
2022/06/06 07:37:09;;;;;;;11.88;4.63;;;14.40;99.90;;;;;;5075666;28;20049;-72
2022/06/06 07:39:51;;;;;;;7.20;3.78;;;14.50;99.90;;;;;;5075822;28;20045;-71
2022/06/06 07:42:41;;;;;;;9.48;4.43;;;14.60;99.90;;;;;;5074629;28;20084;-72
2022/06/06 07:45:28;;;;;;;9.23;4.38;;;14.60;99.90;;;;;;5075389;28;20056;-75
2022/06/06 07:48:24;;;;;;;9.13;4.57;;;14.60;99.90;;;;;;5041141;28;20500;-72
2022/06/06 07:50:53;;;;;;;13.50;4.90;;;14.70;99.90;;;;;;5075363;28;20048;-72
2022/06/06 07:53:51;;;;;;;10.50;4.90;;;14.80;99.90;;;;;;5075268;28;20052;-73
2022/06/06 07:56:32;;;;;;;11.50;4.30;;;14.80;99.90;;;;;;5075441;28;20139;-72
2022/06/06 07:59:09;;;;;;;11.32;5.80;;;14.90;99.90;;;;;;5075289;28;20044;-72
2022/06/06 08:01:37;;;;;;;13.85;5.07;;;14.90;99.90;;;;;;5074984;28;20092;-73
2022/06/06 08:04:34;;;;;;;11.13;6.78;;;15.00;99.90;;;;;;5075094;28;20088;-73
2022/06/06 08:07:12;;;;;;;11.80;5.78;;;15.10;99.90;;;;;;5075166;28;20045;-74
2022/06/06 08:10:08;;;;;;;10.93;5.30;;;15.10;99.90;;;;;;5075167;28;20106;-72
2022/06/06 08:13:04;;;;;;;10.30;5.68;;;15.10;99.90;;;;;;5074918;28;20057;-73
2022/06/06 08:15:42;;;;;;;9.48;5.68;;;15.10;99.90;;;;;;5074934;28;20044;-73
2022/06/06 08:18:26;;;;;;;10.32;5.22;;;15.20;99.90;;;;;;5074759;28;20552;-74
2022/06/06 08:21:13;;;;;;;9.45;4.43;;;15.10;99.90;;;;;;5056787;28;20052;-73
2022/06/06 08:23:40;;;;;;;10.77;4.70;;;15.10;99.90;;;;;;5074682;28;20386;-72
2022/06/06 08:26:08;;;;;;;9.75;5.03;;;15.10;99.90;;;;;;5074359;28;20502;-73
2022/06/06 08:28:40;;;;;;;10.30;5.07;;;15.10;99.90;;;;;;5074056;28;20121;-73
2022/06/06 08:31:08;;;;;;;11.98;5.32;;;15.00;99.90;;;;;;5074413;28;20052;-72
2022/06/06 08:33:35;;;;;;;10.18;5.93;;;15.00;99.90;;;;;;5074516;28;20460;-71
2022/06/06 08:36:31;;;;;;;11.70;6.20;;;15.10;99.90;;;;;;5074161;28;20053;-75
2022/06/06 08:39:23;;;;;;;11.25;5.72;;;15.10;99.90;;;;;;4992765;28;20050;-72
2022/06/06 08:42:18;;;;;;;11.05;4.95;;;15.10;99.90;;;;;;4992890;28;20626;-73
2022/06/06 08:45:08;;;;;;;10.90;5.40;;;15.10;99.90;;;;;;4976854;28;20138;-74
2022/06/06 08:47:56;;;;;;;7.97;5.05;;;15.10;99.90;;;;;;4992779;28;20396;-74
2022/06/06 08:50:56;;;;;;;8.43;5.07;;;15.10;99.90;;;;;;4991821;28;20419;-74
2022/06/06 08:53:55;;;;;;;10.55;6.63;;;15.10;99.90;;;;;;5002223;28;20054;-72
2022/06/06 08:56:44;;;;;;;11.85;6.28;;;15.10;99.90;;;;;;4995797;28;20435;-73
2022/06/06 08:59:32;;;;;;;11.85;6.03;;;15.10;99.90;;;;;;5011888;28;20049;-74
2022/06/06 09:02:14;;;;;;;12.18;7.45;;;15.20;99.90;;;;;;4997991;28;20058;-74
2022/06/06 09:04:53;;;;;;;15.05;7.45;;;15.30;99.90;;;;;;5011660;28;20123;-71
2022/06/06 09:07:58;;;;;;;13.13;7.72;;;15.50;99.90;;;;;;5011798;28;20056;-75
2022/06/06 09:11:12;;;;;;;14.20;7.47;;;15.60;99.90;;;;;;4979807;28;20057;-72
2022/06/06 09:14:13;;;;;;;10.80;6.35;;;15.70;99.90;;;;;;4934077;29;20066;-72
2022/06/06 09:17:19;;;;;;;11.73;6.22;;;15.90;99.90;;;;;;4958984;28;20109;-73
2022/06/06 09:19:55;;;;;;;12.10;6.55;;;16.00;99.90;;;;;;4972432;28;20129;-72
2022/06/06 09:22:41;;;;;;;7.53;4.93;;;16.10;99.90;;;;;;4972494;28;20082;-72
2022/06/06 09:25:28;;;;;;;8.27;5.17;;;16.10;99.90;;;;;;4960383;28;20117;-72
2022/06/06 09:28:36;;;;;;;7.63;4.65;;;16.20;99.90;;;;;;4991896;28;20054;-71
2022/06/06 09:31:39;;;;;;;9.65;5.55;;;16.20;99.90;;;;;;4991712;28;20137;-72
2022/06/06 09:34:25;;;;;;;10.20;4.07;;;16.00;99.90;;;;;;4991630;28;20069;-72
2022/06/06 09:37:29;;;;;;;6.38;3.72;;;15.90;99.90;;;;;;4991580;28;20054;-71
2022/06/06 09:40:46;;;;;;;9.98;4.15;;;15.80;99.90;;;;;;4992019;28;20056;-72
2022/06/06 09:43:32;;;;;;;7.40;3.72;;;15.80;99.90;;;;;;4972199;28;20526;-71
2022/06/06 09:46:35;;;;;;;6.00;3.65;;;15.80;99.90;;;;;;4956180;28;20049;-72
2022/06/06 09:49:23;;;;;;;7.05;3.55;;;15.80;99.90;;;;;;4992551;28;20101;-72
2022/06/06 09:52:18;;;;;;;6.88;3.00;;;15.70;99.90;;;;;;5010770;28;20045;-72
2022/06/06 10:00:54;;;;;;;3.30;2.10;;;15.80;99.90;;;;;;5010815;28;20054;-72
2022/06/06 10:03:56;;;;;;;7.28;1.83;;;15.80;99.90;;;;;;4994637;28;20491;-72
2022/06/06 10:06:44;;;;;;;3.72;1.95;;;15.80;99.90;;;;;;4994152;28;20104;-72
2022/06/06 10:09:26;;;;;;;5.43;1.80;;;15.90;99.90;;;;;;5010928;28;20502;-73
2022/06/06 10:12:11;;;;;;;3.95;1.70;;;16.10;99.90;;;;;;5010808;28;20058;-70
2022/06/06 10:14:47;;;;;;;2.88;1.60;;;16.20;99.90;;;;;;5010908;28;20053;-72
2022/06/06 10:17:46;;;;;;;1.92;1.38;;;16.20;99.90;;;;;;5010963;28;20065;-72
2022/06/06 10:20:32;;;;;;;4.97;2.78;;;16.20;99.90;;;;;;5072598;28;20086;-73
2022/06/06 10:23:31;;;;;;;3.10;2.05;;;16.20;99.90;;;;;;5072398;28;20057;-72
2022/06/06 10:26:21;;;;;;;4.03;1.83;;;16.20;99.90;;;;;;5072693;28;20059;-72
2022/06/06 10:29:07;;;;;;;5.97;1.45;;;16.20;99.90;;;;;;5072700;28;20075;-71
2022/06/06 10:31:43;;;;;;;5.03;1.98;;;16.10;99.90;;;;;;5072860;28;20053;-74
2022/06/06 10:34:19;;;;;;;3.97;1.98;;;16.10;99.90;;;;;;5072745;28;20135;-72
2022/06/06 10:37:20;;;;;;;3.47;1.90;;;16.10;99.90;;;;;;5072447;28;20040;-72
2022/06/06 10:39:53;;;;;;;5.80;2.40;;;16.10;99.90;;;;;;5072504;28;20075;-74
2022/06/06 10:42:27;;;;;;;5.40;2.20;;;16.10;99.90;;;;;;5072366;28;20463;-73
2022/06/06 10:45:20;;;;;;;4.43;2.20;;;16.20;99.90;;;;;;5072466;28;20059;-71
2022/06/06 10:47:47;;;;;;;3.60;2.05;;;16.20;99.90;;;;;;5072216;28;20060;-72
2022/06/06 10:51:36;;;;;;;2.97;1.52;;;16.20;99.90;;;;;;5072255;28;20052;-71
2022/06/06 10:53:52;;;;;;;4.47;1.58;;;16.30;99.90;;;;;;5071945;28;20063;-74
2022/06/06 10:56:53;;;;;;;7.00;2.03;;;16.40;99.90;;;;;;5072174;28;20045;-71
2022/06/06 11:00:00;;;;;;;4.40;2.10;;;16.50;99.90;;;;;;5065039;28;20065;-73
2022/06/06 11:03:13;;;;;;;6.40;1.90;;;16.70;99.90;;;;;;5048178;28;20128;-71
2022/06/06 11:06:05;;;;;;;4.65;2.38;;;16.60;99.90;;;;;;5034505;28;20061;-73
2022/06/06 11:09:08;;;;;;;4.43;1.70;;;16.40;99.90;;;;;;5033628;28;20041;-73
2022/06/06 11:11:53;;;;;;;4.25;2.00;;;16.20;99.90;;;;;;4987536;28;20069;-75
2022/06/06 11:14:52;;;;;;;3.75;2.38;;;16.00;99.90;;;;;;4990940;28;20053;-72
2022/06/06 11:17:32;;;;;;;4.65;1.95;;;15.80;99.90;;;;;;4899212;29;20517;-71
2022/06/06 11:20:19;;;;;;;4.63;2.30;;;15.70;99.90;;;;;;4917209;29;20135;-72
2022/06/06 11:23:02;;;;;;;5.38;1.52;;;15.70;99.90;;;;;;4917318;29;20267;-72
2022/06/06 11:25:59;;;;;;;3.90;2.00;;;15.60;99.90;;;;;;4923857;29;20168;-73
2022/06/06 11:28:52;;;;;;;3.80;1.73;;;15.60;99.90;;;;;;4933459;29;20052;-73
2022/06/06 11:31:37;;;;;;;3.60;1.60;;;15.60;99.90;;;;;;4920384;29;20094;-72
2022/06/06 11:34:32;;;;;;;5.13;1.70;;;15.60;99.90;;;;;;4936094;29;20428;-71
2022/06/06 11:37:39;;;;;;;6.20;1.90;;;15.60;99.90;;;;;;4935692;29;20488;-72
2022/06/06 11:40:35;;;;;;;5.05;1.75;;;15.50;99.90;;;;;;4881758;29;20057;-73
2022/06/06 11:43:38;;;;;;;3.42;1.48;;;15.50;99.90;;;;;;4898060;29;20063;-74
2022/06/06 11:46:23;;;;;;;2.60;1.17;;;15.50;99.90;;;;;;4898828;29;20052;-72
2022/06/06 11:49:00;;;;;;;1.27;0.60;;;15.40;99.90;;;;;;4919043;29;20587;-74
2022/06/06 11:51:35;;;;;;;1.42;0.60;;;15.30;99.90;;;;;;4920472;29;20094;-72
2022/06/06 11:54:07;;;;;;;1.55;0.60;;;15.10;99.90;;;;;;4984777;28;20469;-75
2022/06/06 11:57:05;;;;;;;1.10;0.52;;;14.90;99.90;;;;;;4977676;28;20109;-71
2022/06/06 12:00:32;;;;;;;2.88;0.80;;;14.80;99.90;;;;;;4993692;28;20054;-71
2022/06/06 12:03:21;;;;;;;1.27;0.75;;;14.60;99.90;;;;;;4916788;29;20439;-70
2022/06/06 12:06:06;;;;;;;2.80;1.00;;;14.40;99.90;;;;;;4900912;29;20060;-71
2022/06/06 12:09:01;;;;;;;1.90;0.82;;;14.30;99.90;;;;;;4916584;29;20077;-71
2022/06/06 12:11:46;;;;;;;2.10;0.90;;;14.30;99.90;;;;;;4916183;29;20143;-72
2022/06/06 12:15:00;;;;;;;2.55;0.80;;;14.30;99.90;;;;;;4916513;29;20399;-73
2022/06/06 12:17:53;;;;;;;0.82;0.50;;;14.40;99.90;;;;;;4940701;29;20198;-71
2022/06/06 12:20:40;;;;;;;2.10;1.00;;;14.60;99.90;;;;;;4954519;29;20055;-71
2022/06/06 12:23:21;;;;;;;1.15;0.90;;;14.70;99.90;;;;;;4938494;29;20098;-71
2022/06/06 12:26:10;;;;;;;4.30;1.00;;;14.90;99.90;;;;;;4944719;29;20067;-71
2022/06/06 12:28:55;;;;;;;1.52;1.08;;;15.00;99.90;;;;;;4951143;28;20063;-71
2022/06/06 12:31:27;;;;;;;1.40;1.08;;;15.20;99.90;;;;;;4935148;28;20063;-79
2022/06/06 12:34:10;;;;;;;2.55;1.33;;;15.30;99.90;;;;;;4959426;28;20504;-74
2022/06/06 12:37:08;;;;;;;3.53;1.30;;;15.50;99.90;;;;;;4973555;28;20462;-71
2022/06/06 12:40:08;;;;;;;2.10;1.50;;;15.60;99.90;;;;;;5006746;28;20129;-73
2022/06/06 12:42:36;;;;;;;2.22;1.48;;;15.80;99.90;;;;;;5074208;28;20318;-73
2022/06/06 12:45:33;;;;;;;1.23;0.80;;;15.90;99.90;;;;;;5090088;28;20094;-72
2022/06/06 12:48:23;;;;;;;2.95;0.68;;;16.10;99.90;;;;;;5073860;28;20051;-71
2022/06/06 12:51:04;;;;;;;0.77;0.60;;;16.10;99.90;;;;;;5056348;28;20068;-71
2022/06/06 12:54:08;;;;;;;1.95;0.60;;;16.20;99.90;;;;;;5073808;28;20408;-71
2022/06/06 12:56:54;;;;;;;1.30;0.90;;;16.20;99.90;;;;;;5074311;28;20256;-71
2022/06/06 12:59:25;;;;;;;1.92;0.80;;;16.20;99.90;;;;;;5074060;28;20102;-74
2022/06/06 13:02:10;;;;;;;2.10;0.95;;;16.20;99.90;;;;;;5055754;28;20048;-72
2022/06/06 13:04:58;;;;;;;1.90;0.80;;;16.30;99.90;;;;;;5073458;28;20064;-72
2022/06/06 13:07:23;;;;;;;2.25;1.10;;;16.30;99.90;;;;;;5073502;28;20056;-71
2022/06/06 13:10:04;;;;;;;1.10;0.70;;;16.30;99.90;;;;;;5073470;28;20052;-71
2022/06/06 13:12:46;;;;;;;4.95;1.00;;;16.40;99.90;;;;;;5073354;28;20051;-71
2022/06/06 13:15:22;;;;;;;1.92;1.17;;;16.50;99.90;;;;;;5073378;28;20056;-71
2022/06/06 13:18:08;;;;;;;2.40;1.10;;;16.50;99.90;;;;;;5073555;28;20509;-71
2022/06/06 13:20:56;;;;;;;2.22;0.98;;;16.50;99.90;;;;;;5073212;28;20048;-70
2022/06/06 13:23:49;;;;;;;2.53;0.80;;;16.60;99.90;;;;;;5073119;28;20060;-71
2022/06/06 13:26:35;;;;;;;2.00;0.93;;;16.70;99.90;;;;;;5072949;28;20053;-74
2022/06/06 13:29:01;;;;;;;1.23;0.80;;;16.70;99.90;;;;;;5073308;28;20261;-72
2022/06/06 13:31:45;;;;;;;7.45;0.90;;;16.60;99.90;;;;;;5072964;28;20056;-71
2022/06/06 13:34:33;;;;;;;2.80;0.93;;;16.70;99.90;;;;;;5054721;28;20048;-74
2022/06/06 13:37:09;;;;;;;1.75;1.00;;;16.60;99.90;;;;;;5055268;28;20056;-71
2022/06/06 13:39:53;;;;;;;1.80;1.00;;;16.60;99.90;;;;;;5072072;28;20527;-70
2022/06/06 13:42:30;;;;;;;1.40;1.02;;;16.60;99.90;;;;;;5053375;28;20063;-71
2022/06/06 13:45:22;;;;;;;1.73;0.88;;;16.60;99.90;;;;;;5073165;28;20427;-72
2022/06/06 13:47:53;;;;;;;3.72;1.42;;;16.60;99.90;;;;;;5055253;28;20114;-73
2022/06/06 13:50:48;;;;;;;2.20;1.40;;;16.70;99.90;;;;;;5072819;28;20067;-72
2022/06/06 13:53:25;;;;;;;5.50;1.50;;;16.70;99.90;;;;;;5072958;28;20057;-71
2022/06/06 13:56:24;;;;;;;3.67;1.45;;;16.70;99.90;;;;;;5072930;28;20052;-71
2022/06/06 13:58:59;;;;;;;3.45;1.50;;;16.70;99.90;;;;;;5010780;28;20518;-73
2022/06/06 14:02:00;;;;;;;3.30;1.60;;;16.70;99.90;;;;;;5010706;28;20061;-71
2022/06/06 14:04:44;;;;;;;9.02;1.55;;;16.70;99.90;;;;;;4952427;29;20073;-70
2022/06/06 14:07:26;;;;;;;4.53;1.08;;;16.80;99.90;;;;;;4936253;29;20066;-72
2022/06/06 14:10:00;;;;;;;1.45;0.80;;;16.80;99.90;;;;;;4952299;29;20606;-71
2022/06/06 14:12:53;;;;;;;1.92;1.00;;;16.80;99.90;;;;;;4952347;29;20152;-73
2022/06/06 14:15:24;;;;;;;1.63;0.88;;;16.70;99.90;;;;;;4952465;29;20093;-71
2022/06/06 14:18:03;;;;;;;2.58;1.25;;;16.70;99.90;;;;;;4936552;29;20071;-72
2022/06/06 14:20:42;;;;;;;1.17;0.90;;;16.60;99.90;;;;;;4952351;29;20055;-70